Ikarus — SWEW — position and weather

sailwx.info

Track history (hours):
 
Tides and Currents Weather Stations Pressure Air Temp Water Temp Dewpoint Dewpoint Depression Visibility Wind Speed Wind Dir Waves Ship Positions

Ikarus

Last reported at 2014-Dec-18 13:30 UTC. Time now 2014-Dec-18 14:28 UTC.
Position N 42°59' E 006°47'.

Length 200 m; draft 6.7 m.

Type: Ship. MMSI: 239513000.

Date/timePositionNaut miles runAvg speedWind from/ knotsBaromVisibWave heightAir tempDewpointWater temp
2014-Dec-18 13:30N 42°59' E 006°47'2319.3
2014-Dec-18 12:18N 42°54' E 006°16'1419.2
2014-Dec-18 11:33N 42°54' E 005°57'2019.2
2014-Dec-18 10:32N 42°53' E 005°30'2218.9
2014-Dec-18 09:22N 42°50' E 005°00'1719.0
2014-Dec-18 08:29N 42°47' E 004°37'2219.4
2014-Dec-18 07:21N 42°39' E 004°10'1215.0
2014-Dec-18 06:34N 42°27' E 004°07'1615.6
2014-Dec-18 05:33N 42°13' E 003°59'1716.7
2014-Dec-18 04:33N 42°01' E 003°43'1918.9
2014-Dec-18 03:33N 41°51' E 003°21'2120.4
2014-Dec-18 02:31N 41°39' E 002°57'1919.2
2014-Dec-18 01:33N 41°29' E 002°37'2216.8
2014-Dec-18 00:13N 41°18' E 002°10'4 4.1
2014-Dec-17 23:19N 41°22' E 002°11'0 0.0
2014-Dec-17 20:19N 41°22' E 002°11'10 9.3
2014-Dec-17 19:15N 41°12' E 002°08'1521.1
2014-Dec-17 18:33N 40°59' E 001°60'2120.7
2014-Dec-17 17:33N 40°40' E 001°47'2120.9
2014-Dec-17 16:33N 40°22' E 001°35'2120.8
2014-Dec-17 15:33N 40°03' E 001°23'2120.7
2014-Dec-17 14:32N 39°44' E 001°11'12720.4
2014-Dec-17 08:19N 37°52' W 000°06'1519.9
2014-Dec-17 07:32N 37°39' W 000°16'25719.8
2014-Dec-16 18:33N 35°59' W 005°12'12 1.3
2014-Dec-16 09:33N 35°59' W 005°26'1010.0
2014-Dec-16 08:33N 36°01' W 005°14'20913.8
2014-Dec-15 17:25N 37°10' W 001°08'1517.3
2014-Dec-15 16:33N 37°20' W 000°54'2117.3
2014-Dec-15 15:21N 37°34' W 000°35'1417.2
2014-Dec-15 14:33N 37°45' W 000°24'1717.0
2014-Dec-15 13:34N 37°59' W 000°12'12316.5
2014-Dec-15 06:07N 39°45' E 001°06'916.3
2014-Dec-15 05:33N 39°53' E 001°12'1716.6
2014-Dec-15 04:33N 40°08' E 001°22'1616.1
2014-Dec-15 03:33N 40°22' E 001°32'1616.2
2014-Dec-15 02:33N 40°36' E 001°42'1616.1
2014-Dec-15 01:33N 40°51' E 001°52'1616.1
2014-Dec-15 00:33N 41°05' E 002°02'1413.8
2014-Dec-14 23:31N 41°18' E 002°10'4 1.0
2014-Dec-14 19:27N 41°22' E 002°11'10 9.6
2014-Dec-14 18:25N 41°21' E 002°24'2118.6
2014-Dec-14 17:18N 41°30' E 002°49'1418.6
2014-Dec-14 16:33N 41°37' E 003°06'2119.7
2014-Dec-14 15:30N 41°45' E 003°31'1819.3
2014-Dec-14 14:32N 41°53' E 003°53'1919.7
2014-Dec-14 13:33N 42°02' E 004°17'2319.9
2014-Dec-14 12:23N 42°12' E 004°45'4319.3
2014-Dec-14 10:09N 42°30' E 005°38'3919.1
2014-Dec-14 08:07N 42°47' E 006°26'1120.2
2014-Dec-14 07:33N 42°50' E 006°40'2020.1
2014-Dec-14 06:33N 42°56' E 007°07'2019.9
2014-Dec-14 05:33N 43°01' E 007°33'6019.4
2014-Dec-14 02:27N 43°18' E 008°52'1719.1
2014-Dec-14 01:33N 43°22' E 009°15'1918.9
2014-Dec-14 00:34N 43°28' E 009°40'1918.8
2014-Dec-13 23:34N 43°30' E 010°05'1010.2
2014-Dec-13 22:33N 43°35' E 010°18'0 0.0
2014-Dec-13 21:33N 43°35' E 010°18'0 0.0
2014-Dec-13 20:33N 43°35' E 010°18'0 0.0
2014-Dec-13 19:33N 43°35' E 010°18'0 0.0
2014-Dec-13 18:33N 43°35' E 010°18'0 0.0
2014-Dec-13 17:33N 43°35' E 010°18'0 0.0
2014-Dec-13 16:33N 43°35' E 010°18'0 0.0
2014-Dec-13 15:33N 43°35' E 010°18'0 0.0
2014-Dec-13 14:33N 43°35' E 010°18'0 0.0
2014-Dec-13 13:33N 43°35' E 010°18'0 0.0
2014-Dec-13 12:33N 43°35' E 010°18'0 0.0
2014-Dec-13 11:33N 43°35' E 010°18'0 0.0
2014-Dec-13 10:33N 43°35' E 010°18'0 0.0
2014-Dec-13 09:33N 43°35' E 010°18'0 0.0
2014-Dec-13 08:33N 43°35' E 010°18'0 0.0
2014-Dec-13 07:33N 43°35' E 010°18'0 0.0
2014-Dec-13 06:33N 43°35' E 010°18'0 0.0
2014-Dec-13 05:33N 43°35' E 010°18'0 0.0
2014-Dec-13 04:33N 43°35' E 010°18'0 0.0
2014-Dec-13 03:33N 43°35' E 010°18'0 0.0
2014-Dec-13 02:33N 43°35' E 010°18'0 0.0
2014-Dec-13 01:33N 43°35' E 010°18'0 0.0
2014-Dec-13 00:33N 43°35' E 010°18'0 0.0
2014-Dec-12 23:33N 43°35' E 010°18'0 0.0
2014-Dec-12 22:33N 43°35' E 010°18'0 0.0
2014-Dec-12 21:33N 43°35' E 010°18'0 0.0
2014-Dec-12 20:33N 43°35' E 010°18'0 0.0
2014-Dec-12 19:33N 43°35' E 010°18'0 0.0
2014-Dec-12 18:33N 43°35' E 010°18'0 0.0
2014-Dec-12 17:33N 43°35' E 010°18'0 0.0
2014-Dec-12 16:33N 43°35' E 010°18'0 0.0
2014-Dec-12 15:33N 43°35' E 010°18'0 0.0
2014-Dec-12 14:33N 43°35' E 010°18'0 0.0
2014-Dec-12 13:33N 43°35' E 010°18'0 0.0
2014-Dec-12 12:30N 43°35' E 010°18'0 0.0
2014-Dec-12 11:33N 43°35' E 010°18'0 0.0
2014-Dec-12 10:33N 43°35' E 010°18'0 0.0
2014-Dec-12 09:33N 43°35' E 010°18'0 0.0
2014-Dec-12 08:33N 43°35' E 010°18'0 0.0
2014-Dec-12 07:33N 43°35' E 010°18'0 0.0
2014-Dec-12 06:33N 43°35' E 010°18'0 0.0
2014-Dec-12 05:33N 43°35' E 010°18'0 0.0
2014-Dec-12 04:33N 43°35' E 010°18'0 0.0
2014-Dec-12 03:33N 43°35' E 010°18'0 0.0
2014-Dec-12 02:33N 43°35' E 010°18'0 0.0
2014-Dec-12 01:33N 43°35' E 010°18'0 0.0
2014-Dec-12 00:33N 43°35' E 010°18'0 0.0
2014-Dec-11 23:33N 43°35' E 010°18'0 0.0
2014-Dec-11 22:33N 43°35' E 010°18'0 0.0
2014-Dec-11 21:33N 43°35' E 010°18'3 3.1
2014-Dec-11 20:33N 43°32' E 010°16'1818.4
2014-Dec-11 19:34N 43°30' E 009°51'2221.6
2014-Dec-11 18:33N 43°25' E 009°22'2121.2
2014-Dec-11 17:33N 43°21' E 008°54'6320.9
2014-Dec-11 14:33N 43°06' E 007°30'2120.7
2014-Dec-11 13:34N 43°01' E 007°02'2420.1
2014-Dec-11 12:23N 42°56' E 006°31'2119.4
2014-Dec-11 11:18N 42°55' E 006°02'2319.6
2014-Dec-11 10:07N 42°54' E 005°31'1119.5
2014-Dec-11 09:34N 42°53' E 005°16'2019.9
2014-Dec-11 08:34N 42°51' E 004°49'2019.6
2014-Dec-11 07:33N 42°44' E 004°24'1919.0
2014-Dec-11 06:33N 42°35' E 004°01'1918.8
2014-Dec-11 05:34N 42°22' E 003°43'1717.2
2014-Dec-11 04:33N 42°07' E 003°31'2019.7
2014-Dec-11 03:33N 41°51' E 003°15'2120.8
2014-Dec-11 02:33N 41°38' E 002°54'2321.8
2014-Dec-11 01:30N 41°25' E 002°29'1513.9
2014-Dec-11 00:26N 41°21' E 002°10'1 0.7
2014-Dec-10 22:28N 41°22' E 002°11'0 0.0
2014-Dec-10 21:21N 41°22' E 002°11'16 8.9
2014-Dec-10 19:33N 41°07' E 002°04'2020.0
2014-Dec-10 18:33N 40°49' E 001°52'2020.5
2014-Dec-10 17:33N 40°31' E 001°40'2020.3
2014-Dec-10 16:33N 40°13' E 001°28'2019.9
2014-Dec-10 15:33N 39°55' E 001°16'13819.1
2014-Dec-10 08:20N 37°55' W 000°12'1519.6
2014-Dec-10 07:33N 37°43' W 000°23'1918.6
2014-Dec-10 06:33N 37°28' W 000°38'23719.3
2014-Dec-09 18:17N 35°58' W 005°11'13 1.5
2014-Dec-09 09:33N 35°59' W 005°28'1010.1
2014-Dec-09 08:33N 36°01' W 005°16'21214.8
2014-Dec-08 18:16N 37°12' W 001°06'1216.4
2014-Dec-08 17:33N 37°19' W 000°55'1716.5
2014-Dec-08 16:33N 37°30' W 000°39'1616.4
2014-Dec-08 15:33N 37°43' W 000°26'1716.6
2014-Dec-08 14:33N 37°57' W 000°15'  
Track history (hours):
 
Tides and Currents Weather Stations Pressure Air Temp Water Temp Dewpoint Dewpoint Depression Visibility Wind Speed Wind Dir Waves Ship Positions

Ikarus

Last reported at 2014-Dec-18 13:30 UTC. Time now 2014-Dec-18 14:28 UTC.
Position N 42°59' E 006°47'.

Length 200 m; draft 6.7 m.

Type: Ship. MMSI: 239513000.

Date/timePositionNaut miles runAvg speedWind from/ knotsBaromVisibWave heightAir tempDewpointWater temp
2014-Dec-18 13:30N 42°59' E 006°47'2319.3
2014-Dec-18 12:18N 42°54' E 006°16'1419.2
2014-Dec-18 11:33N 42°54' E 005°57'2019.2
2014-Dec-18 10:32N 42°53' E 005°30'2218.9
2014-Dec-18 09:22N 42°50' E 005°00'1719.0
2014-Dec-18 08:29N 42°47' E 004°37'2219.4
2014-Dec-18 07:21N 42°39' E 004°10'1215.0
2014-Dec-18 06:34N 42°27' E 004°07'1615.6
2014-Dec-18 05:33N 42°13' E 003°59'1716.7
2014-Dec-18 04:33N 42°01' E 003°43'1918.9
2014-Dec-18 03:33N 41°51' E 003°21'2120.4
2014-Dec-18 02:31N 41°39' E 002°57'1919.2
2014-Dec-18 01:33N 41°29' E 002°37'2216.8
2014-Dec-18 00:13N 41°18' E 002°10'4 4.1
2014-Dec-17 23:19N 41°22' E 002°11'0 0.0
2014-Dec-17 20:19N 41°22' E 002°11'10 9.3
2014-Dec-17 19:15N 41°12' E 002°08'1521.1
2014-Dec-17 18:33N 40°59' E 001°60'2120.7
2014-Dec-17 17:33N 40°40' E 001°47'2120.9
2014-Dec-17 16:33N 40°22' E 001°35'2120.8
2014-Dec-17 15:33N 40°03' E 001°23'2120.7
2014-Dec-17 14:32N 39°44' E 001°11'12720.4
2014-Dec-17 08:19N 37°52' W 000°06'1519.9
2014-Dec-17 07:32N 37°39' W 000°16'25719.8
2014-Dec-16 18:33N 35°59' W 005°12'12 1.3
2014-Dec-16 09:33N 35°59' W 005°26'1010.0
2014-Dec-16 08:33N 36°01' W 005°14'20913.8
2014-Dec-15 17:25N 37°10' W 001°08'1517.3
2014-Dec-15 16:33N 37°20' W 000°54'2117.3
2014-Dec-15 15:21N 37°34' W 000°35'1417.2
2014-Dec-15 14:33N 37°45' W 000°24'1717.0
2014-Dec-15 13:34N 37°59' W 000°12'12316.5
2014-Dec-15 06:07N 39°45' E 001°06'916.3
2014-Dec-15 05:33N 39°53' E 001°12'1716.6
2014-Dec-15 04:33N 40°08' E 001°22'1616.1
2014-Dec-15 03:33N 40°22' E 001°32'1616.2
2014-Dec-15 02:33N 40°36' E 001°42'1616.1
2014-Dec-15 01:33N 40°51' E 001°52'1616.1
2014-Dec-15 00:33N 41°05' E 002°02'1413.8
2014-Dec-14 23:31N 41°18' E 002°10'4 1.0
2014-Dec-14 19:27N 41°22' E 002°11'10 9.6
2014-Dec-14 18:25N 41°21' E 002°24'2118.6
2014-Dec-14 17:18N 41°30' E 002°49'1418.6
2014-Dec-14 16:33N 41°37' E 003°06'2119.7
2014-Dec-14 15:30N 41°45' E 003°31'1819.3
2014-Dec-14 14:32N 41°53' E 003°53'1919.7
2014-Dec-14 13:33N 42°02' E 004°17'2319.9
2014-Dec-14 12:23N 42°12' E 004°45'4319.3
2014-Dec-14 10:09N 42°30' E 005°38'3919.1
2014-Dec-14 08:07N 42°47' E 006°26'1120.2
2014-Dec-14 07:33N 42°50' E 006°40'2020.1
2014-Dec-14 06:33N 42°56' E 007°07'2019.9
2014-Dec-14 05:33N 43°01' E 007°33'6019.4
2014-Dec-14 02:27N 43°18' E 008°52'1719.1
2014-Dec-14 01:33N 43°22' E 009°15'1918.9
2014-Dec-14 00:34N 43°28' E 009°40'1918.8
2014-Dec-13 23:34N 43°30' E 010°05'1010.2
2014-Dec-13 22:33N 43°35' E 010°18'0 0.0
2014-Dec-13 21:33N 43°35' E 010°18'0 0.0
2014-Dec-13 20:33N 43°35' E 010°18'0 0.0
2014-Dec-13 19:33N 43°35' E 010°18'0 0.0
2014-Dec-13 18:33N 43°35' E 010°18'0 0.0
2014-Dec-13 17:33N 43°35' E 010°18'0 0.0
2014-Dec-13 16:33N 43°35' E 010°18'0 0.0
2014-Dec-13 15:33N 43°35' E 010°18'0 0.0
2014-Dec-13 14:33N 43°35' E 010°18'0 0.0
2014-Dec-13 13:33N 43°35' E 010°18'0 0.0
2014-Dec-13 12:33N 43°35' E 010°18'0 0.0
2014-Dec-13 11:33N 43°35' E 010°18'0 0.0
2014-Dec-13 10:33N 43°35' E 010°18'0 0.0
2014-Dec-13 09:33N 43°35' E 010°18'0 0.0
2014-Dec-13 08:33N 43°35' E 010°18'0 0.0
2014-Dec-13 07:33N 43°35' E 010°18'0 0.0
2014-Dec-13 06:33N 43°35' E 010°18'0 0.0
2014-Dec-13 05:33N 43°35' E 010°18'0 0.0
2014-Dec-13 04:33N 43°35' E 010°18'0 0.0
2014-Dec-13 03:33N 43°35' E 010°18'0 0.0
2014-Dec-13 02:33N 43°35' E 010°18'0 0.0
2014-Dec-13 01:33N 43°35' E 010°18'0 0.0
2014-Dec-13 00:33N 43°35' E 010°18'0 0.0
2014-Dec-12 23:33N 43°35' E 010°18'0 0.0
2014-Dec-12 22:33N 43°35' E 010°18'0 0.0
2014-Dec-12 21:33N 43°35' E 010°18'0 0.0
2014-Dec-12 20:33N 43°35' E 010°18'0 0.0
2014-Dec-12 19:33N 43°35' E 010°18'0 0.0
2014-Dec-12 18:33N 43°35' E 010°18'0 0.0
2014-Dec-12 17:33N 43°35' E 010°18'0 0.0
2014-Dec-12 16:33N 43°35' E 010°18'0 0.0
2014-Dec-12 15:33N 43°35' E 010°18'0 0.0
2014-Dec-12 14:33N 43°35' E 010°18'0 0.0
2014-Dec-12 13:33N 43°35' E 010°18'0 0.0
2014-Dec-12 12:30N 43°35' E 010°18'0 0.0
2014-Dec-12 11:33N 43°35' E 010°18'0 0.0
2014-Dec-12 10:33N 43°35' E 010°18'0 0.0
2014-Dec-12 09:33N 43°35' E 010°18'0 0.0
2014-Dec-12 08:33N 43°35' E 010°18'0 0.0
2014-Dec-12 07:33N 43°35' E 010°18'0 0.0
2014-Dec-12 06:33N 43°35' E 010°18'0 0.0
2014-Dec-12 05:33N 43°35' E 010°18'0 0.0
2014-Dec-12 04:33N 43°35' E 010°18'0 0.0
2014-Dec-12 03:33N 43°35' E 010°18'0 0.0
2014-Dec-12 02:33N 43°35' E 010°18'0 0.0
2014-Dec-12 01:33N 43°35' E 010°18'0 0.0
2014-Dec-12 00:33N 43°35' E 010°18'0 0.0
2014-Dec-11 23:33N 43°35' E 010°18'0 0.0
2014-Dec-11 22:33N 43°35' E 010°18'0 0.0
2014-Dec-11 21:33N 43°35' E 010°18'3 3.1
2014-Dec-11 20:33N 43°32' E 010°16'1818.4
2014-Dec-11 19:34N 43°30' E 009°51'2221.6
2014-Dec-11 18:33N 43°25' E 009°22'2121.2
2014-Dec-11 17:33N 43°21' E 008°54'6320.9
2014-Dec-11 14:33N 43°06' E 007°30'2120.7
2014-Dec-11 13:34N 43°01' E 007°02'2420.1
2014-Dec-11 12:23N 42°56' E 006°31'2119.4
2014-Dec-11 11:18N 42°55' E 006°02'2319.6
2014-Dec-11 10:07N 42°54' E 005°31'1119.5
2014-Dec-11 09:34N 42°53' E 005°16'2019.9
2014-Dec-11 08:34N 42°51' E 004°49'2019.6
2014-Dec-11 07:33N 42°44' E 004°24'1919.0
2014-Dec-11 06:33N 42°35' E 004°01'1918.8
2014-Dec-11 05:34N 42°22' E 003°43'1717.2
2014-Dec-11 04:33N 42°07' E 003°31'2019.7
2014-Dec-11 03:33N 41°51' E 003°15'2120.8
2014-Dec-11 02:33N 41°38' E 002°54'2321.8
2014-Dec-11 01:30N 41°25' E 002°29'1513.9
2014-Dec-11 00:26N 41°21' E 002°10'1 0.7
2014-Dec-10 22:28N 41°22' E 002°11'0 0.0
2014-Dec-10 21:21N 41°22' E 002°11'16 8.9
2014-Dec-10 19:33N 41°07' E 002°04'2020.0
2014-Dec-10 18:33N 40°49' E 001°52'2020.5
2014-Dec-10 17:33N 40°31' E 001°40'2020.3
2014-Dec-10 16:33N 40°13' E 001°28'2019.9
2014-Dec-10 15:33N 39°55' E 001°16'13819.1
2014-Dec-10 08:20N 37°55' W 000°12'1519.6
2014-Dec-10 07:33N 37°43' W 000°23'1918.6
2014-Dec-10 06:33N 37°28' W 000°38'23719.3
2014-Dec-09 18:17N 35°58' W 005°11'13 1.5
2014-Dec-09 09:33N 35°59' W 005°28'1010.1
2014-Dec-09 08:33N 36°01' W 005°16'21214.8
2014-Dec-08 18:16N 37°12' W 001°06'1216.4
2014-Dec-08 17:33N 37°19' W 000°55'1716.5
2014-Dec-08 16:33N 37°30' W 000°39'1616.4
2014-Dec-08 15:33N 37°43' W 000°26'1716.6
2014-Dec-08 14:33N 37°57' W 000°15'  

Dump ship's entire track history